createdAt,value
2018-09-28T00:02:11.243Z,97.20
2018-09-28T00:04:39.704Z,97.20
2018-09-28T00:07:08.120Z,97.10
2018-09-28T00:09:36.726Z,97.00
2018-09-28T00:12:05.133Z,97.10
2018-09-28T00:14:33.536Z,97.00
2018-09-28T00:17:02.024Z,97.50
2018-09-28T00:19:30.509Z,97.30
2018-09-28T00:21:58.960Z,97.30
2018-09-28T00:24:27.421Z,97.30
2018-09-28T00:26:55.871Z,97.30
2018-09-28T00:29:24.307Z,97.20
2018-09-28T00:31:52.722Z,97.20
2018-09-28T00:34:21.170Z,97.20
2018-09-28T00:36:49.559Z,97.20
2018-09-28T00:39:18.006Z,97.20
2018-09-28T00:41:46.402Z,97.30
2018-09-28T00:44:14.838Z,97.20
2018-09-28T00:46:43.310Z,97.30
2018-09-28T00:49:11.709Z,97.30
2018-09-28T00:51:40.522Z,97.40
2018-09-28T00:54:08.915Z,97.40
2018-09-28T00:56:37.414Z,97.40
2018-09-28T00:59:05.912Z,97.30
2018-09-28T01:01:34.411Z,97.40
2018-09-28T01:04:02.877Z,97.40
2018-09-28T01:06:31.443Z,97.40
2018-09-28T01:09:00.333Z,97.40
2018-09-28T01:11:29.040Z,97.60
2018-09-28T01:13:57.473Z,98.10
2018-09-28T01:16:25.939Z,98.30
2018-09-28T01:18:54.356Z,98.10
2018-09-28T01:21:22.914Z,98.10
2018-09-28T01:23:51.380Z,98.60
2018-09-28T01:26:19.765Z,98.30
2018-09-28T01:28:48.196Z,98.40
2018-09-28T01:31:16.634Z,98.30
2018-09-28T01:33:45.137Z,98.60
2018-09-28T01:36:13.541Z,98.70
2018-09-28T01:38:41.973Z,98.70
2018-09-28T01:41:10.965Z,98.80
2018-09-28T01:43:39.398Z,98.90
2018-09-28T01:46:08.113Z,99.20
2018-09-28T01:48:36.566Z,99.00
2018-09-28T01:51:05.117Z,98.90
2018-09-28T01:53:33.608Z,99.50
2018-09-28T01:56:01.994Z,99.70
2018-09-28T01:58:30.442Z,99.70
2018-09-28T02:00:58.866Z,99.50
2018-09-28T02:03:27.255Z,99.40
2018-09-28T02:05:55.711Z,99.20
2018-09-28T02:08:24.214Z,99.20
2018-09-28T02:10:53.423Z,99.30
2018-09-28T02:13:21.842Z,99.70
2018-09-28T02:15:50.318Z,99.90
2018-09-28T02:18:18.661Z,99.70
2018-09-28T02:20:47.065Z,99.70
2018-09-28T02:23:16.192Z,99.70
2018-09-28T02:25:44.681Z,99.70
2018-09-28T02:28:13.135Z,99.90
2018-09-28T02:30:41.564Z,99.90
2018-09-28T02:33:09.951Z,99.70
2018-09-28T02:35:38.401Z,99.90
2018-09-28T02:38:06.803Z,99.90
2018-09-28T02:40:35.210Z,99.90
2018-09-28T02:43:03.801Z,99.90
2018-09-28T02:45:32.209Z,99.80
2018-09-28T02:48:00.731Z,99.70
2018-09-28T02:50:29.117Z,99.90
2018-09-28T02:52:58.051Z,99.90
2018-09-28T02:55:26.735Z,99.80
2018-09-28T02:57:55.128Z,99.90
2018-09-28T03:00:23.604Z,99.90
2018-09-28T03:02:52.027Z,99.90
2018-09-28T03:05:20.453Z,99.90
2018-09-28T03:07:48.868Z,99.90
2018-09-28T03:10:17.384Z,99.90
2018-09-28T03:12:45.817Z,99.90
2018-09-28T03:15:14.242Z,99.90
2018-09-28T03:17:42.708Z,99.90
2018-09-28T03:20:11.104Z,99.90
2018-09-28T03:22:39.614Z,99.90
2018-09-28T03:25:08.104Z,99.90
2018-09-28T03:27:36.526Z,99.90
2018-09-28T03:30:06.866Z,99.90
2018-09-28T03:32:35.287Z,99.90
2018-09-28T03:35:04.200Z,99.90
2018-09-28T03:37:32.650Z,99.90
2018-09-28T03:40:01.061Z,99.90
2018-09-28T03:42:29.510Z,99.90
2018-09-28T03:44:57.968Z,99.90
2018-09-28T03:47:26.798Z,99.90
2018-09-28T03:49:55.287Z,99.90
2018-09-28T03:52:23.758Z,99.90
2018-09-28T03:54:52.199Z,99.90
2018-09-28T03:57:20.585Z,99.90
2018-09-28T03:59:49.006Z,99.90
2018-09-28T04:02:17.442Z,99.90
2018-09-28T04:04:45.879Z,99.90
2018-09-28T04:07:14.391Z,99.90
2018-09-28T04:09:42.837Z,99.90
2018-09-28T04:12:11.364Z,99.90
2018-09-28T04:14:39.791Z,99.90
2018-09-28T04:17:08.280Z,99.90
2018-09-28T04:19:37.375Z,99.90
2018-09-28T04:22:05.909Z,99.90
2018-09-28T04:24:34.280Z,99.90
2018-09-28T04:27:02.688Z,99.90
2018-09-28T04:29:31.135Z,99.90
2018-09-28T04:31:59.626Z,99.90
2018-09-28T04:34:28.061Z,99.90
2018-09-28T04:36:56.533Z,99.90
2018-09-28T04:39:25.096Z,99.90
2018-09-28T04:41:53.573Z,99.90
2018-09-28T04:44:21.951Z,99.90
2018-09-28T04:46:51.037Z,99.90
2018-09-28T04:49:19.427Z,99.90
2018-09-28T04:51:47.921Z,99.90
2018-09-28T04:54:16.343Z,99.90
2018-09-28T04:56:44.826Z,99.90
2018-09-28T04:59:13.337Z,99.90
2018-09-28T05:01:41.761Z,99.90
2018-09-28T05:04:10.181Z,99.90
2018-09-28T05:06:38.614Z,99.90
2018-09-28T05:09:11.885Z,99.90
2018-09-28T05:11:40.474Z,99.90
2018-09-28T05:14:09.128Z,99.90
2018-09-28T05:16:37.771Z,99.90
2018-09-28T05:19:06.234Z,99.90
2018-09-28T05:21:34.657Z,99.90
2018-09-28T05:24:03.183Z,99.90
2018-09-28T05:26:31.597Z,99.90
2018-09-28T05:28:59.995Z,99.90
2018-09-28T05:31:28.571Z,99.90
2018-09-28T05:33:56.925Z,99.90
2018-09-28T05:36:25.366Z,99.90
2018-09-28T05:38:53.838Z,99.90
2018-09-28T05:41:22.319Z,99.90
2018-09-28T05:43:50.824Z,99.90
2018-09-28T05:46:19.294Z,99.90
2018-09-28T05:48:47.730Z,99.90
2018-09-28T05:51:17.094Z,99.90
2018-09-28T05:53:45.485Z,99.90
2018-09-28T05:56:13.870Z,99.90
2018-09-28T05:58:49.130Z,99.90
2018-09-28T06:01:23.039Z,99.90
2018-09-28T06:03:56.848Z,99.90
2018-09-28T06:06:25.301Z,99.90
2018-09-28T06:08:53.876Z,99.90
2018-09-28T06:11:22.316Z,99.90
2018-09-28T06:13:50.723Z,99.90
2018-09-28T06:16:19.223Z,99.90
2018-09-28T06:18:47.693Z,99.90
2018-09-28T06:21:16.157Z,99.90
2018-09-28T06:23:44.547Z,99.90
2018-09-28T06:26:13.025Z,99.90
2018-09-28T06:28:41.508Z,99.90
2018-09-28T06:31:10.041Z,99.90
2018-09-28T06:33:38.486Z,99.90
2018-09-28T06:36:07.011Z,99.90
2018-09-28T06:38:35.440Z,99.90
2018-09-28T06:41:03.925Z,99.90
2018-09-28T06:43:32.389Z,99.90
2018-09-28T06:46:00.875Z,99.90
2018-09-28T06:48:29.351Z,99.90
2018-09-28T06:50:57.881Z,99.90
2018-09-28T06:53:27.182Z,99.90
2018-09-28T06:55:55.580Z,99.90
2018-09-28T06:58:24.019Z,99.90
2018-09-28T07:00:52.597Z,99.90
2018-09-28T07:03:21.012Z,99.90
2018-09-28T07:05:49.431Z,99.90
2018-09-28T07:08:17.989Z,99.90
2018-09-28T07:10:46.470Z,99.90
2018-09-28T07:13:14.899Z,99.90
2018-09-28T07:15:43.336Z,99.90
2018-09-28T07:18:11.837Z,99.90
2018-09-28T07:20:40.286Z,99.90
2018-09-28T07:23:08.727Z,99.90
2018-09-28T07:25:37.382Z,99.90
2018-09-28T07:28:05.986Z,99.90
2018-09-28T07:30:34.395Z,99.90
2018-09-28T07:33:02.799Z,99.90
2018-09-28T07:35:31.242Z,99.90
2018-09-28T07:37:59.710Z,99.90
2018-09-28T07:40:28.145Z,99.90
2018-09-28T07:42:56.591Z,99.90
2018-09-28T07:45:25.086Z,99.90
2018-09-28T07:47:53.619Z,99.90
2018-09-28T07:50:22.086Z,99.90
2018-09-28T07:52:50.650Z,99.90
2018-09-28T07:55:19.058Z,99.90
2018-09-28T07:57:47.457Z,99.90
2018-09-28T08:00:15.922Z,99.90
2018-09-28T08:02:44.402Z,99.90
2018-09-28T08:05:12.884Z,99.90
2018-09-28T08:07:41.327Z,99.90
2018-09-28T08:10:09.720Z,99.90
2018-09-28T08:12:38.165Z,99.90
2018-09-28T08:15:06.574Z,99.90
2018-09-28T08:17:34.955Z,99.90
2018-09-28T08:20:03.445Z,99.90
2018-09-28T08:22:31.944Z,99.90
2018-09-28T08:25:00.995Z,99.90
2018-09-28T08:27:29.569Z,99.90
2018-09-28T08:29:57.946Z,99.90
2018-09-28T08:32:26.433Z,99.80
2018-09-28T08:34:55.154Z,99.50
2018-09-28T08:37:23.751Z,99.00
2018-09-28T08:39:52.230Z,98.70
2018-09-28T08:42:20.696Z,98.60
2018-09-28T08:44:49.205Z,98.50
2018-09-28T08:47:17.765Z,98.00
2018-09-28T08:49:46.195Z,98.10
2018-09-28T08:52:14.646Z,98.50
2018-09-28T08:54:43.051Z,97.80
2018-09-28T08:57:11.514Z,97.60
2018-09-28T08:59:40.051Z,97.80
2018-09-28T09:02:08.537Z,97.40
2018-09-28T09:04:36.871Z,97.10
2018-09-28T09:07:05.343Z,96.90
2018-09-28T09:09:33.781Z,96.80
2018-09-28T09:12:02.248Z,96.40
2018-09-28T09:14:30.783Z,96.20
2018-09-28T09:16:59.195Z,95.30
2018-09-28T09:19:27.698Z,95.10
2018-09-28T09:21:56.158Z,94.90
2018-09-28T09:24:24.570Z,94.40
2018-09-28T09:26:52.957Z,94.20
2018-09-28T09:29:21.333Z,93.90
2018-09-28T09:31:49.725Z,93.90
2018-09-28T09:34:18.120Z,94.00
2018-09-28T09:36:46.551Z,93.80
2018-09-28T09:39:15.066Z,93.60
2018-09-28T09:41:43.538Z,93.30
2018-09-28T09:44:12.039Z,93.00
2018-09-28T09:46:40.512Z,92.00
2018-09-28T09:49:08.977Z,92.10
2018-09-28T09:51:37.760Z,92.40
2018-09-28T09:54:06.216Z,92.10
2018-09-28T09:56:35.607Z,92.00
2018-09-28T09:59:04.047Z,91.70
2018-09-28T10:01:37.929Z,91.70
2018-09-28T10:04:09.546Z,91.30
2018-09-28T10:06:38.008Z,91.30
2018-09-28T10:09:12.269Z,90.90
2018-09-28T10:11:40.677Z,90.50
2018-09-28T10:14:09.170Z,90.40
2018-09-28T10:16:38.046Z,90.00
2018-09-28T10:19:07.230Z,90.50
2018-09-28T10:21:35.682Z,90.00
2018-09-28T10:24:04.099Z,90.20
2018-09-28T10:26:32.680Z,90.00
2018-09-28T10:29:01.126Z,90.30
2018-09-28T10:31:30.476Z,89.80
2018-09-28T10:33:58.901Z,89.10
2018-09-28T10:36:27.299Z,87.90
2018-09-28T10:38:55.791Z,87.60
2018-09-28T10:41:24.253Z,86.60
2018-09-28T10:43:52.698Z,87.90
2018-09-28T10:46:21.138Z,86.60
2018-09-28T10:48:49.577Z,86.50
2018-09-28T10:51:18.208Z,84.90
2018-09-28T10:53:46.676Z,83.60
2018-09-28T10:56:15.127Z,81.40
2018-09-28T10:58:43.615Z,78.10
2018-09-28T11:01:12.049Z,77.50
2018-09-28T11:03:40.476Z,78.10
2018-09-28T11:06:09.003Z,75.40
2018-09-28T11:08:37.463Z,75.40
2018-09-28T11:11:05.880Z,76.90
2018-09-28T11:13:34.334Z,77.00
2018-09-28T11:16:02.786Z,76.80
2018-09-28T11:18:31.259Z,76.80
2018-09-28T11:20:59.709Z,76.10
2018-09-28T11:23:28.125Z,74.80
2018-09-28T11:25:56.573Z,74.30
2018-09-28T11:28:24.986Z,74.60
2018-09-28T11:30:53.397Z,73.30
2018-09-28T11:33:21.858Z,74.60
2018-09-28T11:35:50.299Z,73.80
2018-09-28T11:38:18.950Z,73.20
2018-09-28T11:40:47.389Z,73.90
2018-09-28T11:43:15.863Z,70.90
2018-09-28T11:45:45.241Z,71.10
2018-09-28T11:48:13.644Z,71.70
2018-09-28T11:50:42.050Z,72.90
2018-09-28T11:53:10.567Z,71.40
2018-09-28T11:55:39.112Z,70.60
2018-09-28T11:58:07.526Z,69.00
2018-09-28T12:00:36.029Z,68.60
2018-09-28T12:03:04.544Z,65.80
2018-09-28T12:05:33.063Z,66.40
2018-09-28T12:08:01.542Z,68.20
2018-09-28T12:10:30.022Z,66.80
2018-09-28T12:12:58.402Z,67.50
2018-09-28T12:15:26.950Z,65.90
2018-09-28T12:17:55.340Z,64.50
2018-09-28T12:20:23.787Z,62.90
2018-09-28T12:22:52.260Z,60.10
2018-09-28T12:25:20.793Z,60.50
2018-09-28T12:27:49.280Z,59.20
2018-09-28T12:30:17.669Z,61.60
2018-09-28T12:32:46.140Z,60.20
2018-09-28T12:35:14.579Z,58.70
2018-09-28T12:37:42.987Z,58.20
2018-09-28T12:40:11.428Z,57.80
2018-09-28T12:42:39.885Z,59.00
2018-09-28T12:45:08.152Z,59.10
2018-09-28T12:47:36.699Z,61.90
2018-09-28T12:50:05.301Z,61.30
2018-09-28T12:52:34.337Z,61.90
2018-09-28T12:55:03.538Z,64.30
2018-09-28T12:57:32.157Z,64.00
2018-09-28T13:00:00.614Z,62.00
2018-09-28T13:02:29.133Z,59.80
2018-09-28T13:04:57.498Z,58.00
2018-09-28T13:07:25.925Z,57.60
2018-09-28T13:09:54.387Z,56.40
2018-09-28T13:12:22.881Z,57.70
2018-09-28T13:14:51.342Z,58.40
2018-09-28T13:17:19.781Z,59.80
2018-09-28T13:19:48.182Z,59.70
2018-09-28T13:22:16.625Z,59.00
2018-09-28T13:24:45.087Z,60.50
2018-09-28T13:27:13.506Z,63.90
2018-09-28T13:29:42.466Z,63.30
2018-09-28T13:32:10.942Z,64.70
2018-09-28T13:34:39.495Z,65.40
2018-09-28T13:37:08.051Z,64.50
2018-09-28T13:39:36.481Z,63.10
2018-09-28T13:42:05.002Z,63.00
2018-09-28T13:44:33.456Z,62.20
2018-09-28T13:47:01.882Z,62.30
2018-09-28T13:49:30.389Z,63.80
2018-09-28T13:51:58.989Z,63.80
2018-09-28T13:54:27.759Z,65.30
2018-09-28T13:56:56.051Z,64.30
2018-09-28T13:59:24.513Z,63.40
2018-09-28T14:01:52.937Z,64.10
2018-09-28T14:04:21.450Z,64.30
2018-09-28T14:06:50.086Z,65.00
2018-09-28T14:09:18.970Z,64.60
2018-09-28T14:11:47.405Z,62.70
2018-09-28T14:14:15.892Z,62.80
2018-09-28T14:16:44.370Z,65.00
2018-09-28T14:19:12.855Z,64.40
2018-09-28T14:21:41.397Z,64.50
2018-09-28T14:24:10.053Z,62.80
2018-09-28T14:26:38.595Z,60.90
2018-09-28T14:29:07.085Z,62.10
2018-09-28T14:31:35.534Z,63.40
2018-09-28T14:34:03.987Z,63.30
2018-09-28T14:36:32.492Z,63.90
2018-09-28T14:39:00.951Z,63.10
2018-09-28T14:41:29.435Z,59.00
2018-09-28T14:43:57.833Z,60.50
2018-09-28T14:46:26.403Z,61.20
2018-09-28T14:48:55.885Z,62.10
2018-09-28T14:51:25.025Z,62.40
2018-09-28T14:53:54.205Z,61.40
2018-09-28T14:56:22.809Z,60.50
2018-09-28T14:58:51.255Z,59.10
2018-09-28T15:01:19.710Z,59.40
2018-09-28T15:03:48.189Z,59.00
2018-09-28T15:06:16.709Z,59.00
2018-09-28T15:08:45.119Z,60.00
2018-09-28T15:11:13.593Z,59.50
2018-09-28T15:13:42.088Z,60.90
2018-09-28T15:16:10.483Z,63.10
2018-09-28T15:18:39.049Z,62.50
2018-09-28T15:21:07.537Z,63.80
2018-09-28T15:23:35.987Z,64.70
2018-09-28T15:26:04.395Z,63.30
2018-09-28T15:28:32.802Z,64.10
2018-09-28T15:31:01.275Z,64.00
2018-09-28T15:33:29.691Z,65.40
2018-09-28T15:35:59.029Z,64.70
2018-09-28T15:38:27.613Z,65.50
2018-09-28T15:40:56.113Z,66.00
2018-09-28T15:43:24.607Z,66.20
2018-09-28T15:45:53.257Z,65.70
2018-09-28T15:48:23.902Z,66.90
2018-09-28T15:50:53.195Z,65.80
2018-09-28T15:53:21.704Z,68.20
2018-09-28T15:55:50.385Z,67.00
2018-09-28T15:58:19.363Z,67.60
2018-09-28T16:00:47.817Z,67.00
2018-09-28T16:03:16.244Z,68.10
2018-09-28T16:05:44.713Z,68.40
2018-09-28T16:08:13.227Z,68.90
2018-09-28T16:10:41.626Z,68.90
2018-09-28T16:13:10.095Z,68.50
2018-09-28T16:15:38.517Z,68.80
2018-09-28T16:18:06.947Z,69.20
2018-09-28T16:20:35.399Z,69.60
2018-09-28T16:23:03.880Z,70.40
2018-09-28T16:25:32.286Z,70.40
2018-09-28T16:28:00.699Z,70.30
2018-09-28T16:30:29.222Z,70.30
2018-09-28T16:32:57.665Z,70.50
2018-09-28T16:35:26.071Z,70.70
2018-09-28T16:37:54.577Z,71.80
2018-09-28T16:40:23.071Z,71.00
2018-09-28T16:42:51.448Z,71.00
2018-09-28T16:45:19.899Z,71.80
2018-09-28T16:47:48.298Z,71.10
2018-09-28T16:50:16.813Z,71.90
2018-09-28T16:52:45.354Z,71.80
2018-09-28T16:55:13.895Z,73.10
2018-09-28T16:57:42.463Z,73.50
2018-09-28T17:00:10.904Z,72.50
2018-09-28T17:02:39.322Z,74.00
2018-09-28T17:05:07.794Z,73.50
2018-09-28T17:07:37.530Z,73.60
2018-09-28T17:10:06.022Z,73.50
2018-09-28T17:12:35.890Z,73.90
2018-09-28T17:15:05.366Z,73.90
2018-09-28T17:17:36.671Z,74.20
2018-09-28T17:20:05.184Z,74.20
2018-09-28T17:22:33.723Z,74.70
2018-09-28T17:25:02.094Z,75.50
2018-09-28T17:27:30.577Z,75.90
2018-09-28T17:29:59.207Z,76.60
2018-09-28T17:32:27.698Z,76.80
2018-09-28T17:34:56.204Z,76.90
2018-09-28T17:37:24.683Z,78.00
2018-09-28T17:39:53.111Z,77.20
2018-09-28T17:42:21.555Z,77.10
2018-09-28T17:44:50.083Z,77.20
2018-09-28T17:47:18.503Z,77.90
2018-09-28T17:49:46.992Z,77.50
2018-09-28T17:52:15.498Z,78.10
2018-09-28T17:54:43.897Z,78.20
2018-09-28T17:57:12.811Z,77.80
2018-09-28T17:59:41.323Z,78.10
2018-09-28T18:02:09.805Z,79.20
2018-09-28T18:04:38.195Z,78.30
2018-09-28T18:07:06.752Z,78.60
2018-09-28T18:09:35.159Z,78.60
2018-09-28T18:12:03.612Z,78.60
2018-09-28T18:14:32.156Z,78.30
2018-09-28T18:17:00.765Z,79.30
2018-09-28T18:19:29.222Z,78.90
2018-09-28T18:21:57.644Z,79.60
2018-09-28T18:24:26.102Z,79.60
2018-09-28T18:26:54.614Z,79.50
2018-09-28T18:29:23.058Z,79.80
2018-09-28T18:31:51.678Z,80.60
2018-09-28T18:34:20.180Z,80.50
2018-09-28T18:36:48.865Z,81.10
2018-09-28T18:39:17.581Z,81.20
2018-09-28T18:41:46.030Z,81.10
2018-09-28T18:44:14.474Z,81.60
2018-09-28T18:46:42.979Z,81.60
2018-09-28T18:49:12.217Z,82.30
2018-09-28T18:51:40.832Z,82.00
2018-09-28T18:54:09.763Z,82.00
2018-09-28T18:56:38.209Z,82.80
2018-09-28T18:59:08.608Z,83.00
2018-09-28T19:01:37.121Z,83.10
2018-09-28T19:04:05.688Z,83.60
2018-09-28T19:06:34.242Z,83.80
2018-09-28T19:09:02.728Z,83.90
2018-09-28T19:11:31.160Z,84.40
2018-09-28T19:13:59.605Z,84.30
2018-09-28T19:16:28.060Z,85.10
2018-09-28T19:18:56.523Z,85.10
2018-09-28T19:21:25.021Z,85.60
2018-09-28T19:23:53.435Z,86.10
2018-09-28T19:26:21.928Z,86.00
2018-09-28T19:28:51.345Z,86.10
2018-09-28T19:31:19.771Z,86.10
2018-09-28T19:33:49.101Z,86.90
2018-09-28T19:36:18.761Z,87.20
2018-09-28T19:38:47.298Z,87.40
2018-09-28T19:41:17.287Z,87.80
2018-09-28T19:43:45.709Z,87.40
2018-09-28T19:46:14.201Z,87.80
2018-09-28T19:48:42.750Z,88.00
2018-09-28T19:51:11.177Z,88.00
2018-09-28T19:53:39.717Z,87.90
2018-09-28T19:56:08.230Z,87.80
2018-09-28T19:58:36.850Z,88.30
2018-09-28T20:01:05.350Z,88.30
2018-09-28T20:03:33.794Z,89.20
2018-09-28T20:06:02.259Z,88.30
2018-09-28T20:08:30.790Z,88.60
2018-09-28T20:10:59.507Z,88.30
2018-09-28T20:13:27.999Z,88.20
2018-09-28T20:15:56.545Z,88.40
2018-09-28T20:18:25.073Z,88.60
2018-09-28T20:20:53.581Z,88.80
2018-09-28T20:23:22.179Z,88.80
2018-09-28T20:25:51.194Z,88.90
2018-09-28T20:28:22.245Z,88.40
2018-09-28T20:30:51.144Z,88.80
2018-09-28T20:33:19.756Z,89.10
2018-09-28T20:35:48.207Z,89.20
2018-09-28T20:38:16.943Z,89.30
2018-09-28T20:40:45.402Z,89.30
2018-09-28T20:43:13.847Z,89.60
2018-09-28T20:45:42.261Z,89.70
2018-09-28T20:48:11.311Z,90.00
2018-09-28T20:50:39.765Z,89.90
2018-09-28T20:53:08.321Z,90.00
2018-09-28T20:55:36.843Z,90.10
2018-09-28T20:58:05.480Z,90.20
2018-09-28T21:00:34.030Z,90.20
2018-09-28T21:03:03.127Z,90.30
2018-09-28T21:05:31.698Z,90.30
2018-09-28T21:08:00.137Z,90.30
2018-09-28T21:10:28.577Z,90.40
2018-09-28T21:12:56.960Z,90.60
2018-09-28T21:15:25.413Z,90.50
2018-09-28T21:17:54.001Z,90.80
2018-09-28T21:20:22.570Z,90.80
2018-09-28T21:22:51.271Z,91.00
2018-09-28T21:25:19.743Z,91.00
2018-09-28T21:27:48.240Z,91.00
2018-09-28T21:30:16.730Z,91.10
2018-09-28T21:32:45.191Z,91.20
2018-09-28T21:35:13.611Z,91.30
2018-09-28T21:37:42.061Z,91.30
2018-09-28T21:40:10.511Z,91.40
2018-09-28T21:42:39.258Z,91.50
2018-09-28T21:45:08.302Z,91.50
2018-09-28T21:47:36.725Z,91.70
2018-09-28T21:50:05.162Z,91.80
2018-09-28T21:52:33.581Z,91.80
2018-09-28T21:55:01.987Z,91.70
2018-09-28T21:57:30.410Z,91.80
2018-09-28T21:59:58.837Z,92.00
2018-09-28T22:02:27.251Z,91.90
2018-09-28T22:04:55.672Z,92.00
2018-09-28T22:07:24.777Z,91.90
2018-09-28T22:09:53.212Z,92.30
2018-09-28T22:12:21.695Z,92.10
2018-09-28T22:14:50.095Z,92.20
2018-09-28T22:17:18.489Z,92.30
2018-09-28T22:19:46.923Z,92.30
2018-09-28T22:22:15.351Z,92.30
2018-09-28T22:24:43.810Z,92.30
2018-09-28T22:27:12.237Z,92.30
2018-09-28T22:29:40.737Z,92.20
2018-09-28T22:32:09.200Z,92.40
2018-09-28T22:34:37.673Z,92.50
2018-09-28T22:37:06.062Z,92.60
2018-09-28T22:39:34.501Z,92.70
2018-09-28T22:42:02.962Z,92.70
2018-09-28T22:44:31.388Z,92.80
2018-09-28T22:46:59.761Z,93.00
2018-09-28T22:49:29.007Z,93.00
2018-09-28T22:51:57.426Z,92.80
2018-09-28T22:54:25.857Z,93.00
2018-09-28T22:56:54.254Z,93.00
2018-09-28T22:59:22.724Z,93.30
2018-09-28T23:01:51.161Z,93.30
2018-09-28T23:04:19.606Z,93.30
2018-09-28T23:06:47.991Z,93.20
2018-09-28T23:09:16.470Z,93.30
2018-09-28T23:11:44.956Z,93.40
2018-09-28T23:14:13.346Z,93.30
2018-09-28T23:16:41.712Z,93.50
2018-09-28T23:19:10.129Z,93.50
2018-09-28T23:21:38.621Z,93.60
2018-09-28T23:24:07.174Z,93.50
2018-09-28T23:26:35.633Z,93.60
2018-09-28T23:29:04.115Z,93.80
2018-09-28T23:31:32.505Z,93.90
2018-09-28T23:34:01.067Z,93.80
2018-09-28T23:36:29.503Z,93.80
2018-09-28T23:38:57.945Z,93.90
2018-09-28T23:41:26.346Z,94.00
2018-09-28T23:43:54.714Z,94.00
2018-09-28T23:46:23.178Z,94.00
2018-09-28T23:48:51.602Z,94.20
2018-09-28T23:51:19.975Z,94.30
2018-09-28T23:53:48.557Z,94.40
2018-09-28T23:56:17.029Z,94.20
2018-09-28T23:58:45.428Z,94.40
